sensor_id;sensor_type;location;lat;lon;timestamp;P1;durP1;ratioP1;P2;durP2;ratioP2
2299;SDS011;1158;48.750;9.078;2023-01-28T00:02:01;16.80;;;8.10;;
2299;SDS011;1158;48.750;9.078;2023-01-28T00:04:29;14.00;;;7.53;;
2299;SDS011;1158;48.750;9.078;2023-01-28T00:06:56;13.47;;;7.80;;
2299;SDS011;1158;48.750;9.078;2023-01-28T00:09:22;12.40;;;7.83;;
2299;SDS011;1158;48.750;9.078;2023-01-28T00:11:49;14.07;;;8.07;;
2299;SDS011;1158;48.750;9.078;2023-01-28T00:14:16;13.10;;;8.30;;
2299;SDS011;1158;48.750;9.078;2023-01-28T00:16:43;13.87;;;7.50;;
2299;SDS011;1158;48.750;9.078;2023-01-28T00:19:10;10.60;;;7.47;;
2299;SDS011;1158;48.750;9.078;2023-01-28T00:21:38;12.37;;;8.03;;
2299;SDS011;1158;48.750;9.078;2023-01-28T00:24:05;13.13;;;8.00;;
2299;SDS011;1158;48.750;9.078;2023-01-28T00:26:33;15.10;;;7.70;;
2299;SDS011;1158;48.750;9.078;2023-01-28T00:29:01;13.83;;;7.80;;
2299;SDS011;1158;48.750;9.078;2023-01-28T00:31:28;11.90;;;7.40;;
2299;SDS011;1158;48.750;9.078;2023-01-28T00:33:55;12.23;;;7.40;;
2299;SDS011;1158;48.750;9.078;2023-01-28T00:36:23;11.33;;;6.70;;
2299;SDS011;1158;48.750;9.078;2023-01-28T00:38:52;12.63;;;7.23;;
2299;SDS011;1158;48.750;9.078;2023-01-28T00:41:20;14.63;;;7.07;;
2299;SDS011;1158;48.750;9.078;2023-01-28T00:43:49;13.20;;;7.33;;
2299;SDS011;1158;48.750;9.078;2023-01-28T00:46:16;14.20;;;7.73;;
2299;SDS011;1158;48.750;9.078;2023-01-28T00:48:43;13.43;;;6.90;;
2299;SDS011;1158;48.750;9.078;2023-01-28T00:51:11;16.47;;;8.07;;
2299;SDS011;1158;48.750;9.078;2023-01-28T00:53:39;13.00;;;7.00;;
2299;SDS011;1158;48.750;9.078;2023-01-28T00:56:07;12.00;;;6.77;;
2299;SDS011;1158;48.750;9.078;2023-01-28T00:58:37;12.33;;;7.00;;
2299;SDS011;1158;48.750;9.078;2023-01-28T01:01:07;12.77;;;7.60;;
2299;SDS011;1158;48.750;9.078;2023-01-28T01:03:36;12.83;;;7.23;;
2299;SDS011;1158;48.750;9.078;2023-01-28T01:06:03;11.53;;;7.43;;
2299;SDS011;1158;48.750;9.078;2023-01-28T01:08:30;13.47;;;7.07;;
2299;SDS011;1158;48.750;9.078;2023-01-28T01:11:00;12.43;;;7.50;;
2299;SDS011;1158;48.750;9.078;2023-01-28T01:13:28;11.37;;;6.83;;
2299;SDS011;1158;48.750;9.078;2023-01-28T01:16:01;12.17;;;7.70;;
2299;SDS011;1158;48.750;9.078;2023-01-28T01:18:29;11.67;;;6.77;;
2299;SDS011;1158;48.750;9.078;2023-01-28T01:20:56;9.90;;;6.60;;
2299;SDS011;1158;48.750;9.078;2023-01-28T01:23:24;11.10;;;6.43;;
2299;SDS011;1158;48.750;9.078;2023-01-28T01:25:51;10.53;;;6.20;;
2299;SDS011;1158;48.750;9.078;2023-01-28T01:28:18;9.70;;;6.67;;
2299;SDS011;1158;48.750;9.078;2023-01-28T01:30:47;12.63;;;7.37;;
2299;SDS011;1158;48.750;9.078;2023-01-28T01:33:14;11.50;;;6.37;;
2299;SDS011;1158;48.750;9.078;2023-01-28T01:35:41;10.27;;;6.63;;
2299;SDS011;1158;48.750;9.078;2023-01-28T01:38:08;13.00;;;5.97;;
2299;SDS011;1158;48.750;9.078;2023-01-28T01:40:34;10.90;;;6.40;;
2299;SDS011;1158;48.750;9.078;2023-01-28T01:43:01;12.07;;;6.53;;
2299;SDS011;1158;48.750;9.078;2023-01-28T01:45:38;12.40;;;6.60;;
2299;SDS011;1158;48.750;9.078;2023-01-28T01:48:08;11.80;;;6.00;;
2299;SDS011;1158;48.750;9.078;2023-01-28T01:50:42;9.83;;;6.07;;
2299;SDS011;1158;48.750;9.078;2023-01-28T01:53:15;11.50;;;6.67;;
2299;SDS011;1158;48.750;9.078;2023-01-28T01:55:44;13.60;;;6.47;;
2299;SDS011;1158;48.750;9.078;2023-01-28T01:58:14;12.40;;;6.90;;
2299;SDS011;1158;48.750;9.078;2023-01-28T02:00:42;12.87;;;6.13;;
2299;SDS011;1158;48.750;9.078;2023-01-28T02:03:10;10.63;;;6.63;;
2299;SDS011;1158;48.750;9.078;2023-01-28T02:05:38;12.77;;;6.73;;
2299;SDS011;1158;48.750;9.078;2023-01-28T02:08:05;16.93;;;7.20;;
2299;SDS011;1158;48.750;9.078;2023-01-28T02:10:47;12.57;;;7.27;;
2299;SDS011;1158;48.750;9.078;2023-01-28T02:13:18;9.80;;;6.10;;
2299;SDS011;1158;48.750;9.078;2023-01-28T02:15:46;12.63;;;7.47;;
2299;SDS011;1158;48.750;9.078;2023-01-28T02:18:16;11.83;;;7.03;;
2299;SDS011;1158;48.750;9.078;2023-01-28T02:20:48;8.97;;;6.20;;
2299;SDS011;1158;48.750;9.078;2023-01-28T02:23:30;13.30;;;8.00;;
2299;SDS011;1158;48.750;9.078;2023-01-28T02:26:15;11.93;;;7.27;;
2299;SDS011;1158;48.750;9.078;2023-01-28T02:29:01;11.07;;;7.00;;
2299;SDS011;1158;48.750;9.078;2023-01-28T02:31:37;11.97;;;6.83;;
2299;SDS011;1158;48.750;9.078;2023-01-28T02:34:08;11.97;;;7.30;;
2299;SDS011;1158;48.750;9.078;2023-01-28T02:36:43;15.03;;;7.73;;
2299;SDS011;1158;48.750;9.078;2023-01-28T02:39:15;8.03;;;5.83;;
2299;SDS011;1158;48.750;9.078;2023-01-28T02:41:45;13.77;;;6.80;;
2299;SDS011;1158;48.750;9.078;2023-01-28T02:44:17;11.03;;;6.43;;
2299;SDS011;1158;48.750;9.078;2023-01-28T02:46:43;9.00;;;6.03;;
2299;SDS011;1158;48.750;9.078;2023-01-28T02:49:29;11.70;;;6.33;;
2299;SDS011;1158;48.750;9.078;2023-01-28T02:52:13;10.13;;;6.20;;
2299;SDS011;1158;48.750;9.078;2023-01-28T02:55:09;9.20;;;6.33;;
2299;SDS011;1158;48.750;9.078;2023-01-28T02:57:42;9.70;;;5.87;;
2299;SDS011;1158;48.750;9.078;2023-01-28T03:00:19;10.37;;;6.57;;
2299;SDS011;1158;48.750;9.078;2023-01-28T03:02:51;12.00;;;6.87;;
2299;SDS011;1158;48.750;9.078;2023-01-28T03:05:25;12.30;;;6.70;;
2299;SDS011;1158;48.750;9.078;2023-01-28T03:07:56;8.77;;;5.30;;
2299;SDS011;1158;48.750;9.078;2023-01-28T03:10:24;10.20;;;6.40;;
2299;SDS011;1158;48.750;9.078;2023-01-28T03:12:52;10.70;;;6.50;;
2299;SDS011;1158;48.750;9.078;2023-01-28T03:15:40;11.53;;;5.90;;
2299;SDS011;1158;48.750;9.078;2023-01-28T03:18:28;11.20;;;6.63;;
2299;SDS011;1158;48.750;9.078;2023-01-28T03:21:19;11.37;;;6.30;;
2299;SDS011;1158;48.750;9.078;2023-01-28T03:24:08;10.40;;;6.20;;
2299;SDS011;1158;48.750;9.078;2023-01-28T03:26:57;10.63;;;6.90;;
2299;SDS011;1158;48.750;9.078;2023-01-28T03:29:46;10.30;;;6.30;;
2299;SDS011;1158;48.750;9.078;2023-01-28T03:32:34;13.93;;;7.20;;
2299;SDS011;1158;48.750;9.078;2023-01-28T03:35:20;14.37;;;7.90;;
2299;SDS011;1158;48.750;9.078;2023-01-28T03:38:06;13.93;;;6.40;;
2299;SDS011;1158;48.750;9.078;2023-01-28T03:40:48;10.33;;;6.70;;
2299;SDS011;1158;48.750;9.078;2023-01-28T03:43:16;15.20;;;8.40;;
2299;SDS011;1158;48.750;9.078;2023-01-28T03:45:42;14.40;;;8.17;;
2299;SDS011;1158;48.750;9.078;2023-01-28T03:48:11;13.73;;;8.43;;
2299;SDS011;1158;48.750;9.078;2023-01-28T03:50:39;15.47;;;8.30;;
2299;SDS011;1158;48.750;9.078;2023-01-28T03:53:05;13.67;;;8.43;;
2299;SDS011;1158;48.750;9.078;2023-01-28T03:55:38;15.60;;;9.03;;
2299;SDS011;1158;48.750;9.078;2023-01-28T03:58:04;16.20;;;8.90;;
2299;SDS011;1158;48.750;9.078;2023-01-28T04:00:31;15.70;;;9.30;;
2299;SDS011;1158;48.750;9.078;2023-01-28T04:02:58;16.33;;;9.40;;
2299;SDS011;1158;48.750;9.078;2023-01-28T04:05:26;16.60;;;9.07;;
2299;SDS011;1158;48.750;9.078;2023-01-28T04:07:53;17.33;;;10.23;;
2299;SDS011;1158;48.750;9.078;2023-01-28T04:10:20;13.17;;;8.57;;
2299;SDS011;1158;48.750;9.078;2023-01-28T04:12:47;19.03;;;10.63;;
2299;SDS011;1158;48.750;9.078;2023-01-28T04:15:15;15.90;;;9.77;;
2299;SDS011;1158;48.750;9.078;2023-01-28T04:17:45;15.17;;;9.67;;
2299;SDS011;1158;48.750;9.078;2023-01-28T04:20:12;16.30;;;9.13;;
2299;SDS011;1158;48.750;9.078;2023-01-28T04:22:41;17.27;;;9.80;;
2299;SDS011;1158;48.750;9.078;2023-01-28T04:25:08;15.80;;;10.37;;
2299;SDS011;1158;48.750;9.078;2023-01-28T04:27:35;24.13;;;11.10;;
2299;SDS011;1158;48.750;9.078;2023-01-28T04:30:02;16.83;;;10.10;;
2299;SDS011;1158;48.750;9.078;2023-01-28T04:32:29;18.27;;;10.17;;
2299;SDS011;1158;48.750;9.078;2023-01-28T04:34:55;18.20;;;10.73;;
2299;SDS011;1158;48.750;9.078;2023-01-28T04:37:22;21.70;;;10.87;;
2299;SDS011;1158;48.750;9.078;2023-01-28T04:39:50;22.30;;;11.67;;
2299;SDS011;1158;48.750;9.078;2023-01-28T04:42:17;24.50;;;11.70;;
2299;SDS011;1158;48.750;9.078;2023-01-28T04:44:43;21.17;;;10.93;;
2299;SDS011;1158;48.750;9.078;2023-01-28T04:47:10;17.80;;;10.90;;
2299;SDS011;1158;48.750;9.078;2023-01-28T04:49:37;19.43;;;11.13;;
2299;SDS011;1158;48.750;9.078;2023-01-28T04:52:03;19.73;;;11.80;;
2299;SDS011;1158;48.750;9.078;2023-01-28T04:54:30;21.33;;;12.67;;
2299;SDS011;1158;48.750;9.078;2023-01-28T04:56:58;21.00;;;12.60;;
2299;SDS011;1158;48.750;9.078;2023-01-28T04:59:25;20.20;;;12.37;;
2299;SDS011;1158;48.750;9.078;2023-01-28T05:01:52;19.77;;;12.10;;
2299;SDS011;1158;48.750;9.078;2023-01-28T05:04:18;25.20;;;12.87;;
2299;SDS011;1158;48.750;9.078;2023-01-28T05:06:45;19.83;;;12.07;;
2299;SDS011;1158;48.750;9.078;2023-01-28T05:09:12;22.00;;;12.00;;
2299;SDS011;1158;48.750;9.078;2023-01-28T05:11:38;22.17;;;13.47;;
2299;SDS011;1158;48.750;9.078;2023-01-28T05:14:07;21.07;;;11.67;;
2299;SDS011;1158;48.750;9.078;2023-01-28T05:16:33;21.93;;;11.57;;
2299;SDS011;1158;48.750;9.078;2023-01-28T05:19:00;21.50;;;11.80;;
2299;SDS011;1158;48.750;9.078;2023-01-28T05:21:27;22.90;;;13.13;;
2299;SDS011;1158;48.750;9.078;2023-01-28T05:23:54;23.10;;;13.33;;
2299;SDS011;1158;48.750;9.078;2023-01-28T05:26:20;24.63;;;13.37;;
2299;SDS011;1158;48.750;9.078;2023-01-28T05:28:47;25.77;;;12.83;;
2299;SDS011;1158;48.750;9.078;2023-01-28T05:31:16;27.23;;;12.90;;
2299;SDS011;1158;48.750;9.078;2023-01-28T05:33:43;23.20;;;12.50;;
2299;SDS011;1158;48.750;9.078;2023-01-28T05:36:10;24.27;;;13.10;;
2299;SDS011;1158;48.750;9.078;2023-01-28T05:38:36;23.37;;;13.83;;
2299;SDS011;1158;48.750;9.078;2023-01-28T05:41:03;24.27;;;13.10;;
2299;SDS011;1158;48.750;9.078;2023-01-28T05:43:30;35.93;;;12.90;;
2299;SDS011;1158;48.750;9.078;2023-01-28T05:45:56;23.60;;;12.60;;
2299;SDS011;1158;48.750;9.078;2023-01-28T05:48:25;23.90;;;12.43;;
2299;SDS011;1158;48.750;9.078;2023-01-28T05:50:51;21.33;;;12.87;;
2299;SDS011;1158;48.750;9.078;2023-01-28T05:53:18;24.20;;;13.10;;
2299;SDS011;1158;48.750;9.078;2023-01-28T05:55:46;21.77;;;12.90;;
2299;SDS011;1158;48.750;9.078;2023-01-28T05:58:13;20.40;;;11.60;;
2299;SDS011;1158;48.750;9.078;2023-01-28T06:00:40;21.73;;;11.70;;
2299;SDS011;1158;48.750;9.078;2023-01-28T06:03:07;21.70;;;12.30;;
2299;SDS011;1158;48.750;9.078;2023-01-28T06:05:35;19.57;;;12.07;;
2299;SDS011;1158;48.750;9.078;2023-01-28T06:08:02;18.80;;;11.73;;
2299;SDS011;1158;48.750;9.078;2023-01-28T06:10:29;20.67;;;11.37;;
2299;SDS011;1158;48.750;9.078;2023-01-28T06:12:56;23.77;;;11.83;;
2299;SDS011;1158;48.750;9.078;2023-01-28T06:15:23;20.00;;;10.80;;
2299;SDS011;1158;48.750;9.078;2023-01-28T06:17:50;21.97;;;10.97;;
2299;SDS011;1158;48.750;9.078;2023-01-28T06:20:16;19.20;;;10.80;;
2299;SDS011;1158;48.750;9.078;2023-01-28T06:22:45;19.63;;;11.73;;
2299;SDS011;1158;48.750;9.078;2023-01-28T06:25:11;19.87;;;11.07;;
2299;SDS011;1158;48.750;9.078;2023-01-28T06:27:39;20.03;;;11.47;;
2299;SDS011;1158;48.750;9.078;2023-01-28T06:30:06;23.37;;;12.23;;
2299;SDS011;1158;48.750;9.078;2023-01-28T06:32:33;23.40;;;11.53;;
2299;SDS011;1158;48.750;9.078;2023-01-28T06:35:00;18.37;;;11.23;;
2299;SDS011;1158;48.750;9.078;2023-01-28T06:37:27;20.00;;;11.97;;
2299;SDS011;1158;48.750;9.078;2023-01-28T06:39:55;24.33;;;12.97;;
2299;SDS011;1158;48.750;9.078;2023-01-28T06:42:22;19.70;;;11.87;;
2299;SDS011;1158;48.750;9.078;2023-01-28T06:44:48;19.73;;;11.33;;
2299;SDS011;1158;48.750;9.078;2023-01-28T06:47:15;23.83;;;12.40;;
2299;SDS011;1158;48.750;9.078;2023-01-28T06:49:42;19.23;;;11.60;;
2299;SDS011;1158;48.750;9.078;2023-01-28T06:52:08;20.80;;;11.57;;
2299;SDS011;1158;48.750;9.078;2023-01-28T06:54:35;19.03;;;11.50;;
2299;SDS011;1158;48.750;9.078;2023-01-28T06:57:03;20.37;;;12.40;;
2299;SDS011;1158;48.750;9.078;2023-01-28T06:59:30;20.60;;;11.60;;
2299;SDS011;1158;48.750;9.078;2023-01-28T07:01:56;18.83;;;11.27;;
2299;SDS011;1158;48.750;9.078;2023-01-28T07:04:23;16.13;;;10.33;;
2299;SDS011;1158;48.750;9.078;2023-01-28T07:06:50;20.23;;;11.67;;
2299;SDS011;1158;48.750;9.078;2023-01-28T07:09:16;21.47;;;12.90;;
2299;SDS011;1158;48.750;9.078;2023-01-28T07:11:43;18.67;;;11.20;;
2299;SDS011;1158;48.750;9.078;2023-01-28T07:14:11;19.90;;;11.63;;
2299;SDS011;1158;48.750;9.078;2023-01-28T07:16:38;24.07;;;11.60;;
2299;SDS011;1158;48.750;9.078;2023-01-28T07:19:04;21.57;;;12.83;;
2299;SDS011;1158;48.750;9.078;2023-01-28T07:21:31;20.23;;;11.10;;
2299;SDS011;1158;48.750;9.078;2023-01-28T07:23:58;19.70;;;11.80;;
2299;SDS011;1158;48.750;9.078;2023-01-28T07:26:24;20.27;;;11.80;;
2299;SDS011;1158;48.750;9.078;2023-01-28T07:28:51;21.47;;;11.00;;
2299;SDS011;1158;48.750;9.078;2023-01-28T07:31:19;27.50;;;12.93;;
2299;SDS011;1158;48.750;9.078;2023-01-28T07:33:46;19.60;;;10.50;;
2299;SDS011;1158;48.750;9.078;2023-01-28T07:36:12;20.87;;;12.10;;
2299;SDS011;1158;48.750;9.078;2023-01-28T07:38:39;24.53;;;12.10;;
2299;SDS011;1158;48.750;9.078;2023-01-28T07:41:06;22.27;;;11.87;;
2299;SDS011;1158;48.750;9.078;2023-01-28T07:43:32;20.60;;;11.60;;
2299;SDS011;1158;48.750;9.078;2023-01-28T07:45:59;25.03;;;12.00;;
2299;SDS011;1158;48.750;9.078;2023-01-28T07:48:27;22.23;;;12.70;;
2299;SDS011;1158;48.750;9.078;2023-01-28T07:50:57;17.73;;;11.10;;
2299;SDS011;1158;48.750;9.078;2023-01-28T07:53:24;21.70;;;12.80;;
2299;SDS011;1158;48.750;9.078;2023-01-28T07:55:51;24.73;;;12.80;;
2299;SDS011;1158;48.750;9.078;2023-01-28T07:58:17;20.60;;;11.67;;
2299;SDS011;1158;48.750;9.078;2023-01-28T08:00:44;21.93;;;12.63;;
2299;SDS011;1158;48.750;9.078;2023-01-28T08:03:11;22.20;;;11.40;;
2299;SDS011;1158;48.750;9.078;2023-01-28T08:05:41;21.30;;;12.00;;
2299;SDS011;1158;48.750;9.078;2023-01-28T08:08:10;24.30;;;12.97;;
2299;SDS011;1158;48.750;9.078;2023-01-28T08:10:37;20.90;;;11.87;;
2299;SDS011;1158;48.750;9.078;2023-01-28T08:13:05;21.83;;;11.80;;
2299;SDS011;1158;48.750;9.078;2023-01-28T08:15:32;21.60;;;12.27;;
2299;SDS011;1158;48.750;9.078;2023-01-28T08:17:59;19.30;;;11.50;;
2299;SDS011;1158;48.750;9.078;2023-01-28T08:20:26;24.90;;;13.60;;
2299;SDS011;1158;48.750;9.078;2023-01-28T08:23:04;23.50;;;13.83;;
2299;SDS011;1158;48.750;9.078;2023-01-28T08:25:32;24.90;;;13.80;;
2299;SDS011;1158;48.750;9.078;2023-01-28T08:27:58;22.93;;;13.47;;
2299;SDS011;1158;48.750;9.078;2023-01-28T08:30:25;27.00;;;14.00;;
2299;SDS011;1158;48.750;9.078;2023-01-28T08:32:54;27.10;;;14.60;;
2299;SDS011;1158;48.750;9.078;2023-01-28T08:35:21;20.87;;;12.00;;
2299;SDS011;1158;48.750;9.078;2023-01-28T08:37:47;23.60;;;14.00;;
2299;SDS011;1158;48.750;9.078;2023-01-28T08:40:15;20.37;;;11.97;;
2299;SDS011;1158;48.750;9.078;2023-01-28T08:42:45;21.27;;;13.20;;
2299;SDS011;1158;48.750;9.078;2023-01-28T08:45:12;21.80;;;13.63;;
2299;SDS011;1158;48.750;9.078;2023-01-28T08:47:46;21.93;;;13.80;;
2299;SDS011;1158;48.750;9.078;2023-01-28T08:50:13;20.23;;;12.50;;
2299;SDS011;1158;48.750;9.078;2023-01-28T08:52:40;19.17;;;12.93;;
2299;SDS011;1158;48.750;9.078;2023-01-28T08:55:08;23.80;;;12.97;;
2299;SDS011;1158;48.750;9.078;2023-01-28T08:57:36;21.67;;;12.33;;
2299;SDS011;1158;48.750;9.078;2023-01-28T09:00:04;19.33;;;11.87;;
2299;SDS011;1158;48.750;9.078;2023-01-28T09:02:34;24.60;;;13.47;;
2299;SDS011;1158;48.750;9.078;2023-01-28T09:05:01;20.67;;;12.50;;
2299;SDS011;1158;48.750;9.078;2023-01-28T09:07:28;26.03;;;13.83;;
2299;SDS011;1158;48.750;9.078;2023-01-28T09:09:54;21.67;;;12.43;;
2299;SDS011;1158;48.750;9.078;2023-01-28T09:12:21;25.20;;;13.63;;
2299;SDS011;1158;48.750;9.078;2023-01-28T09:14:49;30.00;;;13.57;;
2299;SDS011;1158;48.750;9.078;2023-01-28T09:17:16;27.60;;;15.30;;
2299;SDS011;1158;48.750;9.078;2023-01-28T09:19:43;19.60;;;12.67;;
2299;SDS011;1158;48.750;9.078;2023-01-28T09:22:10;21.97;;;13.00;;
2299;SDS011;1158;48.750;9.078;2023-01-28T09:24:37;24.23;;;13.73;;
2299;SDS011;1158;48.750;9.078;2023-01-28T09:27:03;19.17;;;13.00;;
2299;SDS011;1158;48.750;9.078;2023-01-28T09:29:30;23.00;;;13.43;;
2299;SDS011;1158;48.750;9.078;2023-01-28T09:32:00;22.13;;;13.37;;
2299;SDS011;1158;48.750;9.078;2023-01-28T09:34:27;22.87;;;13.50;;
2299;SDS011;1158;48.750;9.078;2023-01-28T09:36:54;22.80;;;13.37;;
2299;SDS011;1158;48.750;9.078;2023-01-28T09:39:21;22.07;;;12.07;;
2299;SDS011;1158;48.750;9.078;2023-01-28T09:41:55;23.40;;;14.10;;
2299;SDS011;1158;48.750;9.078;2023-01-28T09:44:39;22.40;;;13.80;;
2299;SDS011;1158;48.750;9.078;2023-01-28T09:47:20;20.23;;;12.20;;
2299;SDS011;1158;48.750;9.078;2023-01-28T09:49:50;21.10;;;12.87;;
2299;SDS011;1158;48.750;9.078;2023-01-28T09:52:22;22.10;;;11.50;;
2299;SDS011;1158;48.750;9.078;2023-01-28T09:54:51;18.07;;;11.57;;
2299;SDS011;1158;48.750;9.078;2023-01-28T09:57:21;23.13;;;12.20;;
2299;SDS011;1158;48.750;9.078;2023-01-28T09:59:51;19.27;;;12.70;;
2299;SDS011;1158;48.750;9.078;2023-01-28T10:02:25;21.10;;;12.93;;
2299;SDS011;1158;48.750;9.078;2023-01-28T10:05:02;21.87;;;13.30;;
2299;SDS011;1158;48.750;9.078;2023-01-28T10:07:41;20.60;;;12.00;;
2299;SDS011;1158;48.750;9.078;2023-01-28T10:10:16;20.30;;;11.83;;
2299;SDS011;1158;48.750;9.078;2023-01-28T10:15:50;21.40;;;12.53;;
2299;SDS011;1158;48.750;9.078;2023-01-28T10:18:36;19.47;;;11.73;;
2299;SDS011;1158;48.750;9.078;2023-01-28T10:21:09;19.53;;;12.90;;
2299;SDS011;1158;48.750;9.078;2023-01-28T10:23:45;20.30;;;11.90;;
2299;SDS011;1158;48.750;9.078;2023-01-28T10:26:21;23.37;;;13.40;;
2299;SDS011;1158;48.750;9.078;2023-01-28T10:28:51;20.13;;;12.03;;
2299;SDS011;1158;48.750;9.078;2023-01-28T10:31:21;24.50;;;13.60;;
2299;SDS011;1158;48.750;9.078;2023-01-28T10:33:49;23.03;;;12.27;;
2299;SDS011;1158;48.750;9.078;2023-01-28T10:36:16;22.00;;;13.10;;
2299;SDS011;1158;48.750;9.078;2023-01-28T10:38:44;25.00;;;12.50;;
2299;SDS011;1158;48.750;9.078;2023-01-28T10:41:11;22.47;;;12.47;;
2299;SDS011;1158;48.750;9.078;2023-01-28T10:43:42;23.33;;;13.30;;
2299;SDS011;1158;48.750;9.078;2023-01-28T10:46:10;21.07;;;12.03;;
2299;SDS011;1158;48.750;9.078;2023-01-28T10:48:41;22.30;;;12.50;;
2299;SDS011;1158;48.750;9.078;2023-01-28T10:51:12;21.53;;;12.70;;
2299;SDS011;1158;48.750;9.078;2023-01-28T10:53:40;20.70;;;12.50;;
2299;SDS011;1158;48.750;9.078;2023-01-28T10:56:08;23.30;;;14.27;;
2299;SDS011;1158;48.750;9.078;2023-01-28T10:58:45;21.37;;;12.33;;
2299;SDS011;1158;48.750;9.078;2023-01-28T11:01:15;24.57;;;13.63;;
2299;SDS011;1158;48.750;9.078;2023-01-28T11:03:50;19.33;;;11.80;;
2299;SDS011;1158;48.750;9.078;2023-01-28T11:06:24;24.30;;;13.60;;
2299;SDS011;1158;48.750;9.078;2023-01-28T11:08:52;22.70;;;13.50;;
2299;SDS011;1158;48.750;9.078;2023-01-28T11:11:21;21.80;;;12.43;;
2299;SDS011;1158;48.750;9.078;2023-01-28T11:13:50;21.23;;;12.13;;
2299;SDS011;1158;48.750;9.078;2023-01-28T11:16:18;26.23;;;14.20;;
2299;SDS011;1158;48.750;9.078;2023-01-28T11:18:47;20.87;;;12.37;;
2299;SDS011;1158;48.750;9.078;2023-01-28T11:21:17;20.03;;;11.57;;
2299;SDS011;1158;48.750;9.078;2023-01-28T11:23:48;18.70;;;12.33;;
2299;SDS011;1158;48.750;9.078;2023-01-28T11:26:19;20.10;;;12.17;;
2299;SDS011;1158;48.750;9.078;2023-01-28T11:28:48;18.70;;;12.63;;
2299;SDS011;1158;48.750;9.078;2023-01-28T11:31:16;20.40;;;12.53;;
2299;SDS011;1158;48.750;9.078;2023-01-28T11:33:47;18.07;;;12.17;;
2299;SDS011;1158;48.750;9.078;2023-01-28T11:36:16;19.63;;;12.43;;
2299;SDS011;1158;48.750;9.078;2023-01-28T11:38:49;18.00;;;11.07;;
2299;SDS011;1158;48.750;9.078;2023-01-28T11:41:18;22.50;;;12.57;;
2299;SDS011;1158;48.750;9.078;2023-01-28T11:43:51;21.13;;;12.77;;
2299;SDS011;1158;48.750;9.078;2023-01-28T11:46:34;19.33;;;12.17;;
2299;SDS011;1158;48.750;9.078;2023-01-28T11:49:14;18.80;;;11.60;;
2299;SDS011;1158;48.750;9.078;2023-01-28T11:51:48;22.47;;;13.40;;
2299;SDS011;1158;48.750;9.078;2023-01-28T11:54:26;19.87;;;12.40;;
2299;SDS011;1158;48.750;9.078;2023-01-28T11:57:12;24.10;;;13.47;;
2299;SDS011;1158;48.750;9.078;2023-01-28T11:59:58;19.27;;;12.37;;
2299;SDS011;1158;48.750;9.078;2023-01-28T12:02:42;22.83;;;13.03;;
2299;SDS011;1158;48.750;9.078;2023-01-28T12:05:25;20.90;;;12.40;;
2299;SDS011;1158;48.750;9.078;2023-01-28T12:08:07;20.97;;;12.23;;
2299;SDS011;1158;48.750;9.078;2023-01-28T12:10:40;22.17;;;13.50;;
2299;SDS011;1158;48.750;9.078;2023-01-28T12:13:17;19.27;;;11.90;;
2299;SDS011;1158;48.750;9.078;2023-01-28T12:16:07;23.93;;;12.87;;
2299;SDS011;1158;48.750;9.078;2023-01-28T12:18:48;22.20;;;12.37;;
2299;SDS011;1158;48.750;9.078;2023-01-28T12:21:24;23.40;;;12.53;;
2299;SDS011;1158;48.750;9.078;2023-01-28T12:24:05;23.50;;;13.63;;
2299;SDS011;1158;48.750;9.078;2023-01-28T12:26:45;21.53;;;13.53;;
2299;SDS011;1158;48.750;9.078;2023-01-28T12:29:20;25.60;;;13.50;;
2299;SDS011;1158;48.750;9.078;2023-01-28T12:31:59;22.67;;;13.00;;
2299;SDS011;1158;48.750;9.078;2023-01-28T12:34:53;24.00;;;13.30;;
2299;SDS011;1158;48.750;9.078;2023-01-28T12:37:35;20.37;;;11.97;;
2299;SDS011;1158;48.750;9.078;2023-01-28T12:40:16;21.20;;;13.57;;
2299;SDS011;1158;48.750;9.078;2023-01-28T12:43:00;24.00;;;12.70;;
2299;SDS011;1158;48.750;9.078;2023-01-28T12:45:31;26.20;;;16.00;;
2299;SDS011;1158;48.750;9.078;2023-01-28T12:48:06;23.80;;;13.67;;
2299;SDS011;1158;48.750;9.078;2023-01-28T12:50:36;27.30;;;15.33;;
2299;SDS011;1158;48.750;9.078;2023-01-28T12:53:12;26.37;;;14.70;;
2299;SDS011;1158;48.750;9.078;2023-01-28T12:55:47;25.77;;;13.87;;
2299;SDS011;1158;48.750;9.078;2023-01-28T12:58:21;23.23;;;13.47;;
2299;SDS011;1158;48.750;9.078;2023-01-28T13:00:57;24.60;;;14.47;;
2299;SDS011;1158;48.750;9.078;2023-01-28T13:03:30;27.70;;;14.60;;
2299;SDS011;1158;48.750;9.078;2023-01-28T13:06:03;18.37;;;10.57;;
2299;SDS011;1158;48.750;9.078;2023-01-28T13:08:36;24.10;;;14.13;;
2299;SDS011;1158;48.750;9.078;2023-01-28T13:11:03;25.03;;;13.20;;
2299;SDS011;1158;48.750;9.078;2023-01-28T13:13:36;25.90;;;12.40;;
2299;SDS011;1158;48.750;9.078;2023-01-28T13:16:06;21.37;;;10.73;;
2299;SDS011;1158;48.750;9.078;2023-01-28T13:18:41;21.83;;;12.93;;
2299;SDS011;1158;48.750;9.078;2023-01-28T13:21:11;16.23;;;11.30;;
2299;SDS011;1158;48.750;9.078;2023-01-28T13:23:41;17.23;;;10.37;;
2299;SDS011;1158;48.750;9.078;2023-01-28T13:26:10;18.23;;;10.87;;
2299;SDS011;1158;48.750;9.078;2023-01-28T13:28:56;23.43;;;12.53;;
2299;SDS011;1158;48.750;9.078;2023-01-28T13:31:36;20.27;;;12.13;;
2299;SDS011;1158;48.750;9.078;2023-01-28T13:34:04;19.97;;;10.87;;
2299;SDS011;1158;48.750;9.078;2023-01-28T13:36:33;24.00;;;10.57;;
2299;SDS011;1158;48.750;9.078;2023-01-28T13:39:05;21.20;;;10.17;;
2299;SDS011;1158;48.750;9.078;2023-01-28T13:41:44;18.63;;;9.50;;
2299;SDS011;1158;48.750;9.078;2023-01-28T13:44:25;16.93;;;10.00;;
2299;SDS011;1158;48.750;9.078;2023-01-28T13:46:53;19.67;;;9.90;;
2299;SDS011;1158;48.750;9.078;2023-01-28T13:49:25;18.23;;;9.70;;
2299;SDS011;1158;48.750;9.078;2023-01-28T13:51:58;12.30;;;8.00;;
2299;SDS011;1158;48.750;9.078;2023-01-28T13:54:32;15.60;;;8.03;;
2299;SDS011;1158;48.750;9.078;2023-01-28T13:57:10;15.60;;;9.13;;
2299;SDS011;1158;48.750;9.078;2023-01-28T13:59:59;17.33;;;9.03;;
2299;SDS011;1158;48.750;9.078;2023-01-28T14:02:36;14.73;;;9.03;;
2299;SDS011;1158;48.750;9.078;2023-01-28T14:05:18;20.47;;;9.13;;
2299;SDS011;1158;48.750;9.078;2023-01-28T14:11:14;20.30;;;10.60;;
2299;SDS011;1158;48.750;9.078;2023-01-28T14:14:10;19.33;;;9.83;;
2299;SDS011;1158;48.750;9.078;2023-01-28T14:16:57;20.17;;;11.03;;
2299;SDS011;1158;48.750;9.078;2023-01-28T14:19:28;18.60;;;11.43;;
2299;SDS011;1158;48.750;9.078;2023-01-28T14:22:04;19.27;;;10.43;;
2299;SDS011;1158;48.750;9.078;2023-01-28T14:24:32;16.20;;;10.43;;
2299;SDS011;1158;48.750;9.078;2023-01-28T14:27:00;19.90;;;11.00;;
2299;SDS011;1158;48.750;9.078;2023-01-28T14:29:48;20.93;;;11.93;;
2299;SDS011;1158;48.750;9.078;2023-01-28T14:32:30;17.63;;;10.30;;
2299;SDS011;1158;48.750;9.078;2023-01-28T14:34:58;20.37;;;11.90;;
2299;SDS011;1158;48.750;9.078;2023-01-28T14:37:30;19.53;;;12.03;;
2299;SDS011;1158;48.750;9.078;2023-01-28T14:39:58;19.80;;;10.60;;
2299;SDS011;1158;48.750;9.078;2023-01-28T14:42:28;20.50;;;11.80;;
2299;SDS011;1158;48.750;9.078;2023-01-28T14:45:01;22.13;;;10.63;;
2299;SDS011;1158;48.750;9.078;2023-01-28T14:47:43;17.50;;;10.70;;
2299;SDS011;1158;48.750;9.078;2023-01-28T14:50:24;18.03;;;10.83;;
2299;SDS011;1158;48.750;9.078;2023-01-28T14:55:53;18.03;;;11.00;;
2299;SDS011;1158;48.750;9.078;2023-01-28T14:58:24;18.83;;;11.77;;
2299;SDS011;1158;48.750;9.078;2023-01-28T15:00:58;21.80;;;11.67;;
2299;SDS011;1158;48.750;9.078;2023-01-28T15:03:28;20.60;;;12.17;;
2299;SDS011;1158;48.750;9.078;2023-01-28T15:06:02;19.90;;;10.90;;
2299;SDS011;1158;48.750;9.078;2023-01-28T15:08:30;19.23;;;12.20;;
2299;SDS011;1158;48.750;9.078;2023-01-28T15:10:57;20.77;;;11.87;;
2299;SDS011;1158;48.750;9.078;2023-01-28T15:13:27;18.63;;;11.13;;
2299;SDS011;1158;48.750;9.078;2023-01-28T15:15:55;18.63;;;10.93;;
2299;SDS011;1158;48.750;9.078;2023-01-28T15:18:25;17.57;;;10.70;;
2299;SDS011;1158;48.750;9.078;2023-01-28T15:20:58;15.83;;;10.10;;
2299;SDS011;1158;48.750;9.078;2023-01-28T15:23:27;16.97;;;10.60;;
2299;SDS011;1158;48.750;9.078;2023-01-28T15:25:58;15.27;;;10.17;;